Historique des mesures à Cassis (13260), France
Quotidien Résumé Fevrier 18, 2018 Unités:  US    Métrique   Métrique/US
« Précédent (Jour)
Suivant (Jour) »
Quotidien Hebdomadaire Mensuel Annuel Période au choix
  Maximum: Minimum: Moyenne:
Température: 32 °F 44.1 °F 47.8 °F
Point de rosée: 32 °F 33.6 °F 36.1 °F
Humidité: Humidity % 55 % 61 %
Vitesse du vent: WindSpeedKMH mph 0.0 mph 10.6 mph
Rafales: WindSpeedGustKMH mph - -
Vent:- - West
Pression: 0 in 29.9 in -
Précipitations: 0 in    
Historical Graphs
 
 
Mesures pour : Fevrier 18, 2018
Heure Temperature Point de rosée Pression Vent Vitesse du vent Rafales Humidité Pluie (par heure) Conditions
32 °F 32 °F 0 in Calm     Humidity % 0 in SoftwareType W/m2
00:12 49.1 °F 40.1 °F 30 in NW 6.1 mph 14.3 mph 71 % 0 in open2300-1.11 W/m2
01:12 48.2 °F 39.9 °F 30 in NNE 14.8 mph 17.2 mph 73 % 0 in open2300-1.11 W/m2
02:12 47.3 °F 38.7 °F 29.9 in NNW 13.7 mph 24.8 mph 72 % 0 in open2300-1.11 W/m2
03:12 46.6 °F 37.8 °F 29.9 in WNW 17.7 mph 20.9 mph 71 % 0 in open2300-1.11 W/m2
04:12 45.5 °F 36.7 °F 29.9 in NNW 21.6 mph 32.3 mph 71 % 0 in open2300-1.11 W/m2
05:12 45.1 °F 36.7 °F 29.9 in NNE 19.8 mph 19.8 mph 72 % 0 in open2300-1.11 W/m2
06:12 44.8 °F 35.6 °F 29.9 in NW 8.2 mph 11.1 mph 70 % 0 in open2300-1.11 W/m2
07:12 44.4 °F 34.9 °F 29.9 in NW 4.0 mph 11.9 mph 69 % 0 in open2300-1.11 W/m2
08:12 44.1 °F 33.8 °F 29.9 in NNE 12.6 mph 20.9 mph 67 % 0 in open2300-1.11 W/m2
09:12 45.5 °F 33.6 °F 29.9 in NW 16.6 mph 28.8 mph 63 % 0 in open2300-1.11 W/m2
11:12 49.1 °F 36 °F 29.9 in NW 11.6 mph 14.8 mph 60 % 0 in open2300-1.11 W/m2
12:12 51.3 °F 36.5 °F 29.9 in NW 6.8 mph 15.4 mph 57 % 0 in open2300-1.11 W/m2
13:12 52.2 °F 36.9 °F 29.9 in NW 23.3 mph 29.9 mph 56 % 0 in open2300-1.11 W/m2
14:12 52 °F 37 °F 29.9 in NNW 20.9 mph 25.3 mph 57 % 0 in open2300-1.11 W/m2
15:12 52.3 °F 37 °F 29.9 in NNW 16.6 mph 37.8 mph 56 % 0 in open2300-1.11 W/m2
16:12 52.3 °F 36.5 °F 29.9 in WNW 14.3 mph 14.3 mph 55 % 0 in open2300-1.11 W/m2
16:48 50.7 °F 35.4 °F 29.9 in West 23.0 mph 23.0 mph 56 % 0 in open2300-1.11 W/m2
17:12 50.4 °F 35.8 °F 29.9 in WNW 6.4 mph 23.0 mph 57 % 0 in open2300-1.11 W/m2
17:38 50.2 °F 35.4 °F 29.9 in NNW 5.0 mph 5.0 mph 57 % 0 in open2300-1.11 W/m2
18:12 49.6 °F 35.1 °F 29.9 in NW 4.0 mph 10.1 mph 57 % 0 in open2300-1.11 W/m2
19:12 48.4 °F 34.9 °F 29.9 in WNW 2.6 mph 9.7 mph 59 % 0 in open2300-1.11 W/m2
20:12 48 °F 35.2 °F 29.9 in NW 3.5 mph 7.2 mph 61 % 0 in open2300-1.11 W/m2
21:12 48 °F 35.2 °F 29.9 in NW 2.1 mph 2.1 mph 61 % 0 in open2300-1.11 W/m2
22:12 47.7 °F 35.8 °F 29.9 in Calm   2.9 mph 63 % 0 in open2300-1.11 W/m2
23:12 47.7 °F 36.9 °F 29.9 in Calm   10.1 mph 66 % 0 in open2300-1.11 W/m2
Observations météo à CASSIS
WU-History script by Weather Underground - 1 mb